Lock Haven, PA

5:27 PM EDT on July 25, 2016 (GMT -0400)
NonFedAWOS | | Change Station
Active Advisory: Severe Thunderstorm Watch

Elev 556 ft 41.14 °N, 77.42 °W | Updated 18 minutes ago

Light Rain
Light Rain
73 °F
Feels Like 71 °F
N
0
Wind Variable Wind from North
Gusts 0.0 mph

Today
High -- | Low -- °F
--% Chance of Precip.
Yesterday
High -- | Low -- °F
Precip. -- in
Pressure 29.91 in
Visibility 9.0 miles
Clouds Mostly Cloudy 9500 ft
Mostly Cloudy 11000 ft
Heat Index 71 °F
Dew Point 70 °F
Humidity 89%
Rainfall in
Snow Depth Not available.
5:59 AM 8:32 PM
Waning Gibbous, 62% visible
SPECI KIPT 252105Z 25006KT 9SM VCTS -RA BKN095 BKN110 23/21 A2991 RMK AO2 LTG DSNT ALQDS RAB03 TSE2059 PRESRR P0000 T02330206
Pressure 29.91 in
Visibility 9.0 miles
Clouds Mostly Cloudy 9500 ft
Mostly Cloudy 11000 ft
Heat Index 71 °F
Dew Point 70 °F
Humidity 89%
Rainfall in
Snow Depth Not available.
5:59 AM 8:32 PM
Waning Gibbous, 62% visible
SPECI KIPT 252105Z 25006KT 9SM VCTS -RA BKN095 BKN110 23/21 A2991 RMK AO2 LTG DSNT ALQDS RAB03 TSE2059 PRESRR P0000 T02330206
Record highs are possible for parts of the Northeast Monday and Tuesday, as parts of the central U.S. take a little breather from the worst of summer's dog day heat.

Expansive high pressure in the upper atmosphere will focus on parts of the East and West this week, sending heat indices well into the triple digits from the Mid-Atlantic states into the South.

10-Day Weather Forecast

Almanac

Astronomy

Jul. 25, 2016 Rise Set
Actual Time
Civil Twilight
Nautical Twilight
Astronomical Twilight
Moon
Length of Visible Light
Length of Day
Tomorrow will be .
, % of the Moon is Illuminated

Today's Extremes

State Highs State Lows

Community

WunderPhotos

Upload Photos

1,927,424 photos uploaded!

WunderBlog® & News

Nearby

Air Quality

  Air Quality AQ Index Pollutant
Not available.

Snow Depth

Station Depth Elevation

Earthquake Activity

City Distance Mag. Time & Date
Minimum magnitude displayed is 2.5.

Coastal Water Temperatures

Place Temperature

Stations

Nearby Weather Stations

Station Location Temp. Windchill Dew Point Humidity Wind Precip. Elev Updated Type
                   

Watches & Warnings

Severe Thunderstorm Watch
Issued: 5:24 PM EDT Jul. 25, 2016 – National Weather Service

Severe Thunderstorm Watch 415 remains in effect until 800 PM EDT

PA
. Pennsylvania counties included are

Adams Bedford Berks
Blair Bucks Cambria
Carbon centre Chester
Clearfield Clinton Columbia
Cumberland Dauphin Delaware
Fayette Franklin Fulton
Huntingdon Juniata Lackawanna
Lancaster Lebanon Lehigh
Luzerne Mifflin Monroe
Montgomery Montour Northampton
Northumberland Perry Philadelphia
Pike Schuylkill Snyder
Somerset Union Wayne
York